sensor_id;sensor_type;location;lat;lon;timestamp;P1;durP1;ratioP1;P2;durP2;ratioP2
5805;SDS011;2929;50.810;8.342;2023-02-11T00:01:58;42.17;;;21.70;;
5805;SDS011;2929;50.810;8.342;2023-02-11T00:04:26;48.57;;;23.47;;
5805;SDS011;2929;50.810;8.342;2023-02-11T00:06:53;48.33;;;24.00;;
5805;SDS011;2929;50.810;8.342;2023-02-11T00:09:20;48.13;;;21.43;;
5805;SDS011;2929;50.810;8.342;2023-02-11T00:11:47;50.37;;;23.10;;
5805;SDS011;2929;50.810;8.342;2023-02-11T00:14:20;54.63;;;23.40;;
5805;SDS011;2929;50.810;8.342;2023-02-11T00:16:47;49.30;;;23.30;;
5805;SDS011;2929;50.810;8.342;2023-02-11T00:19:16;49.63;;;22.90;;
5805;SDS011;2929;50.810;8.342;2023-02-11T00:21:44;53.73;;;23.00;;
5805;SDS011;2929;50.810;8.342;2023-02-11T00:24:11;49.70;;;23.83;;
5805;SDS011;2929;50.810;8.342;2023-02-11T00:26:38;46.20;;;21.90;;
5805;SDS011;2929;50.810;8.342;2023-02-11T00:29:06;48.60;;;21.77;;
5805;SDS011;2929;50.810;8.342;2023-02-11T00:31:33;48.33;;;22.87;;
5805;SDS011;2929;50.810;8.342;2023-02-11T00:34:00;50.30;;;23.53;;
5805;SDS011;2929;50.810;8.342;2023-02-11T00:36:29;55.70;;;22.60;;
5805;SDS011;2929;50.810;8.342;2023-02-11T00:38:58;46.80;;;21.37;;
5805;SDS011;2929;50.810;8.342;2023-02-11T00:41:26;48.60;;;20.77;;
5805;SDS011;2929;50.810;8.342;2023-02-11T00:43:53;50.50;;;22.37;;
5805;SDS011;2929;50.810;8.342;2023-02-11T00:46:21;63.13;;;24.50;;
5805;SDS011;2929;50.810;8.342;2023-02-11T00:48:48;54.47;;;22.80;;
5805;SDS011;2929;50.810;8.342;2023-02-11T00:51:20;51.27;;;23.20;;
5805;SDS011;2929;50.810;8.342;2023-02-11T00:53:48;53.00;;;22.00;;
5805;SDS011;2929;50.810;8.342;2023-02-11T00:56:16;47.63;;;22.87;;
5805;SDS011;2929;50.810;8.342;2023-02-11T00:58:43;41.50;;;20.30;;
5805;SDS011;2929;50.810;8.342;2023-02-11T01:01:11;50.10;;;21.30;;
5805;SDS011;2929;50.810;8.342;2023-02-11T01:03:38;48.00;;;20.30;;
5805;SDS011;2929;50.810;8.342;2023-02-11T01:06:06;44.90;;;20.10;;
5805;SDS011;2929;50.810;8.342;2023-02-11T01:08:36;47.03;;;19.73;;
5805;SDS011;2929;50.810;8.342;2023-02-11T01:11:05;48.50;;;22.27;;
5805;SDS011;2929;50.810;8.342;2023-02-11T01:13:37;50.20;;;22.00;;
5805;SDS011;2929;50.810;8.342;2023-02-11T01:16:05;46.50;;;21.57;;
5805;SDS011;2929;50.810;8.342;2023-02-11T01:18:33;57.07;;;21.60;;
5805;SDS011;2929;50.810;8.342;2023-02-11T01:21:00;53.30;;;22.53;;
5805;SDS011;2929;50.810;8.342;2023-02-11T01:23:27;41.90;;;20.23;;
5805;SDS011;2929;50.810;8.342;2023-02-11T01:25:55;46.23;;;22.23;;
5805;SDS011;2929;50.810;8.342;2023-02-11T01:28:24;53.33;;;23.87;;
5805;SDS011;2929;50.810;8.342;2023-02-11T01:30:53;48.20;;;21.50;;
5805;SDS011;2929;50.810;8.342;2023-02-11T01:33:21;49.00;;;21.20;;
5805;SDS011;2929;50.810;8.342;2023-02-11T01:35:49;46.00;;;21.77;;
5805;SDS011;2929;50.810;8.342;2023-02-11T01:38:17;49.60;;;20.80;;
5805;SDS011;2929;50.810;8.342;2023-02-11T01:40:46;44.97;;;20.77;;
5805;SDS011;2929;50.810;8.342;2023-02-11T01:43:14;42.27;;;21.07;;
5805;SDS011;2929;50.810;8.342;2023-02-11T01:45:52;46.13;;;22.77;;
5805;SDS011;2929;50.810;8.342;2023-02-11T01:48:27;48.33;;;21.23;;
5805;SDS011;2929;50.810;8.342;2023-02-11T01:50:58;46.23;;;21.33;;
5805;SDS011;2929;50.810;8.342;2023-02-11T01:53:28;51.57;;;21.93;;
5805;SDS011;2929;50.810;8.342;2023-02-11T01:56:15;43.53;;;20.90;;
5805;SDS011;2929;50.810;8.342;2023-02-11T01:59:02;49.67;;;21.63;;
5805;SDS011;2929;50.810;8.342;2023-02-11T02:01:34;45.93;;;21.87;;
5805;SDS011;2929;50.810;8.342;2023-02-11T02:04:03;42.37;;;20.70;;
5805;SDS011;2929;50.810;8.342;2023-02-11T02:06:32;47.57;;;21.33;;
5805;SDS011;2929;50.810;8.342;2023-02-11T02:09:04;52.40;;;21.60;;
5805;SDS011;2929;50.810;8.342;2023-02-11T02:11:33;41.97;;;21.07;;
5805;SDS011;2929;50.810;8.342;2023-02-11T02:14:01;45.47;;;22.07;;
5805;SDS011;2929;50.810;8.342;2023-02-11T02:16:37;61.57;;;23.97;;
5805;SDS011;2929;50.810;8.342;2023-02-11T02:19:11;44.33;;;20.90;;
5805;SDS011;2929;50.810;8.342;2023-02-11T02:25:34;40.73;;;20.40;;
5805;SDS011;2929;50.810;8.342;2023-02-11T02:28:32;48.30;;;21.87;;
5805;SDS011;2929;50.810;8.342;2023-02-11T02:31:22;56.57;;;23.37;;
5805;SDS011;2929;50.810;8.342;2023-02-11T02:34:00;50.97;;;21.47;;
5805;SDS011;2929;50.810;8.342;2023-02-11T02:36:33;48.87;;;22.97;;
5805;SDS011;2929;50.810;8.342;2023-02-11T02:39:07;46.47;;;22.90;;
5805;SDS011;2929;50.810;8.342;2023-02-11T02:41:39;47.53;;;22.53;;
5805;SDS011;2929;50.810;8.342;2023-02-11T02:44:07;50.50;;;24.23;;
5805;SDS011;2929;50.810;8.342;2023-02-11T02:46:35;53.10;;;23.70;;
5805;SDS011;2929;50.810;8.342;2023-02-11T02:49:05;52.07;;;24.20;;
5805;SDS011;2929;50.810;8.342;2023-02-11T02:51:51;51.03;;;24.13;;
5805;SDS011;2929;50.810;8.342;2023-02-11T02:54:30;51.07;;;23.07;;
5805;SDS011;2929;50.810;8.342;2023-02-11T02:57:14;60.60;;;26.03;;
5805;SDS011;2929;50.810;8.342;2023-02-11T02:59:53;54.43;;;24.30;;
5805;SDS011;2929;50.810;8.342;2023-02-11T03:02:30;49.00;;;22.23;;
5805;SDS011;2929;50.810;8.342;2023-02-11T03:05:04;55.27;;;23.53;;
5805;SDS011;2929;50.810;8.342;2023-02-11T03:07:39;48.67;;;20.63;;
5805;SDS011;2929;50.810;8.342;2023-02-11T03:10:10;51.43;;;24.20;;
5805;SDS011;2929;50.810;8.342;2023-02-11T03:12:40;49.37;;;23.70;;
5805;SDS011;2929;50.810;8.342;2023-02-11T03:15:09;51.57;;;22.77;;
5805;SDS011;2929;50.810;8.342;2023-02-11T03:17:38;44.90;;;23.27;;
5805;SDS011;2929;50.810;8.342;2023-02-11T03:20:10;47.47;;;22.37;;
5805;SDS011;2929;50.810;8.342;2023-02-11T03:22:40;48.20;;;21.70;;
5805;SDS011;2929;50.810;8.342;2023-02-11T03:25:11;47.10;;;22.20;;
5805;SDS011;2929;50.810;8.342;2023-02-11T03:27:40;47.30;;;21.43;;
5805;SDS011;2929;50.810;8.342;2023-02-11T03:30:12;46.33;;;21.53;;
5805;SDS011;2929;50.810;8.342;2023-02-11T03:32:42;51.50;;;23.90;;
5805;SDS011;2929;50.810;8.342;2023-02-11T03:35:16;45.97;;;22.57;;
5805;SDS011;2929;50.810;8.342;2023-02-11T03:37:49;43.27;;;21.40;;
5805;SDS011;2929;50.810;8.342;2023-02-11T03:40:19;46.23;;;23.37;;
5805;SDS011;2929;50.810;8.342;2023-02-11T03:42:50;44.93;;;21.93;;
5805;SDS011;2929;50.810;8.342;2023-02-11T03:45:20;44.40;;;21.93;;
5805;SDS011;2929;50.810;8.342;2023-02-11T03:47:49;43.67;;;21.20;;
5805;SDS011;2929;50.810;8.342;2023-02-11T03:50:21;44.23;;;21.50;;
5805;SDS011;2929;50.810;8.342;2023-02-11T03:52:49;41.10;;;21.50;;
5805;SDS011;2929;50.810;8.342;2023-02-11T03:55:18;39.87;;;20.97;;
5805;SDS011;2929;50.810;8.342;2023-02-11T03:57:50;46.43;;;20.43;;
5805;SDS011;2929;50.810;8.342;2023-02-11T04:00:17;48.13;;;21.60;;
5805;SDS011;2929;50.810;8.342;2023-02-11T04:02:44;40.67;;;20.10;;
5805;SDS011;2929;50.810;8.342;2023-02-11T04:05:12;45.60;;;21.77;;
5805;SDS011;2929;50.810;8.342;2023-02-11T04:07:42;41.20;;;20.37;;
5805;SDS011;2929;50.810;8.342;2023-02-11T04:10:10;52.43;;;22.10;;
5805;SDS011;2929;50.810;8.342;2023-02-11T04:12:37;46.87;;;20.40;;
5805;SDS011;2929;50.810;8.342;2023-02-11T04:15:05;40.63;;;19.93;;
5805;SDS011;2929;50.810;8.342;2023-02-11T04:17:32;46.57;;;22.27;;
5805;SDS011;2929;50.810;8.342;2023-02-11T04:19:59;40.30;;;20.67;;
5805;SDS011;2929;50.810;8.342;2023-02-11T04:22:26;49.10;;;24.10;;
5805;SDS011;2929;50.810;8.342;2023-02-11T04:24:55;54.00;;;22.73;;
5805;SDS011;2929;50.810;8.342;2023-02-11T04:27:22;40.53;;;20.50;;
5805;SDS011;2929;50.810;8.342;2023-02-11T04:29:49;42.93;;;21.03;;
5805;SDS011;2929;50.810;8.342;2023-02-11T04:32:16;47.97;;;23.60;;
5805;SDS011;2929;50.810;8.342;2023-02-11T04:34:43;40.50;;;20.93;;
5805;SDS011;2929;50.810;8.342;2023-02-11T04:37:10;39.63;;;20.13;;
5805;SDS011;2929;50.810;8.342;2023-02-11T04:39:37;48.20;;;21.30;;
5805;SDS011;2929;50.810;8.342;2023-02-11T04:42:06;43.60;;;21.70;;
5805;SDS011;2929;50.810;8.342;2023-02-11T04:44:33;45.07;;;21.20;;
5805;SDS011;2929;50.810;8.342;2023-02-11T04:47:00;50.73;;;23.70;;
5805;SDS011;2929;50.810;8.342;2023-02-11T04:49:27;49.00;;;23.03;;
5805;SDS011;2929;50.810;8.342;2023-02-11T04:51:54;47.80;;;23.43;;
5805;SDS011;2929;50.810;8.342;2023-02-11T04:54:21;47.80;;;22.43;;
5805;SDS011;2929;50.810;8.342;2023-02-11T04:56:48;51.07;;;22.10;;
5805;SDS011;2929;50.810;8.342;2023-02-11T04:59:16;45.40;;;22.37;;
5805;SDS011;2929;50.810;8.342;2023-02-11T05:01:43;50.73;;;23.90;;
5805;SDS011;2929;50.810;8.342;2023-02-11T05:04:10;53.20;;;24.17;;
5805;SDS011;2929;50.810;8.342;2023-02-11T05:06:37;47.63;;;23.83;;
5805;SDS011;2929;50.810;8.342;2023-02-11T05:09:05;50.63;;;23.07;;
5805;SDS011;2929;50.810;8.342;2023-02-11T05:11:32;48.17;;;24.57;;
5805;SDS011;2929;50.810;8.342;2023-02-11T05:14:00;51.63;;;24.17;;
5805;SDS011;2929;50.810;8.342;2023-02-11T05:16:29;50.90;;;23.40;;
5805;SDS011;2929;50.810;8.342;2023-02-11T05:18:56;45.03;;;20.47;;
5805;SDS011;2929;50.810;8.342;2023-02-11T05:21:23;44.73;;;23.23;;
5805;SDS011;2929;50.810;8.342;2023-02-11T05:23:50;46.87;;;24.10;;
5805;SDS011;2929;50.810;8.342;2023-02-11T05:26:17;50.37;;;24.67;;
5805;SDS011;2929;50.810;8.342;2023-02-11T05:28:44;51.50;;;24.97;;
5805;SDS011;2929;50.810;8.342;2023-02-11T05:31:11;52.17;;;25.53;;
5805;SDS011;2929;50.810;8.342;2023-02-11T05:33:40;52.97;;;25.23;;
5805;SDS011;2929;50.810;8.342;2023-02-11T05:36:08;49.47;;;23.13;;
5805;SDS011;2929;50.810;8.342;2023-02-11T05:38:36;51.10;;;24.00;;
5805;SDS011;2929;50.810;8.342;2023-02-11T05:41:04;44.73;;;22.70;;
5805;SDS011;2929;50.810;8.342;2023-02-11T05:43:32;50.80;;;23.97;;
5805;SDS011;2929;50.810;8.342;2023-02-11T05:46:01;47.30;;;23.20;;
5805;SDS011;2929;50.810;8.342;2023-02-11T05:48:28;46.97;;;24.70;;
5805;SDS011;2929;50.810;8.342;2023-02-11T05:50:57;52.77;;;25.37;;
5805;SDS011;2929;50.810;8.342;2023-02-11T05:53:24;53.70;;;25.57;;
5805;SDS011;2929;50.810;8.342;2023-02-11T05:55:51;47.37;;;22.67;;
5805;SDS011;2929;50.810;8.342;2023-02-11T05:58:18;43.90;;;23.07;;
5805;SDS011;2929;50.810;8.342;2023-02-11T06:00:45;48.07;;;22.80;;
5805;SDS011;2929;50.810;8.342;2023-02-11T06:03:12;44.60;;;22.87;;
5805;SDS011;2929;50.810;8.342;2023-02-11T06:05:41;54.77;;;26.00;;
5805;SDS011;2929;50.810;8.342;2023-02-11T06:08:09;46.77;;;24.63;;
5805;SDS011;2929;50.810;8.342;2023-02-11T06:10:37;47.73;;;22.80;;
5805;SDS011;2929;50.810;8.342;2023-02-11T06:13:06;48.77;;;23.57;;
5805;SDS011;2929;50.810;8.342;2023-02-11T06:15:33;53.23;;;25.10;;
5805;SDS011;2929;50.810;8.342;2023-02-11T06:18:00;48.60;;;24.40;;
5805;SDS011;2929;50.810;8.342;2023-02-11T06:20:27;52.63;;;24.83;;
5805;SDS011;2929;50.810;8.342;2023-02-11T06:22:54;55.57;;;24.87;;
5805;SDS011;2929;50.810;8.342;2023-02-11T06:25:23;49.83;;;22.40;;
5805;SDS011;2929;50.810;8.342;2023-02-11T06:27:50;47.70;;;24.10;;
5805;SDS011;2929;50.810;8.342;2023-02-11T06:30:17;44.87;;;23.90;;
5805;SDS011;2929;50.810;8.342;2023-02-11T06:32:44;54.83;;;25.80;;
5805;SDS011;2929;50.810;8.342;2023-02-11T06:35:11;48.50;;;23.17;;
5805;SDS011;2929;50.810;8.342;2023-02-11T06:37:38;49.10;;;23.07;;
5805;SDS011;2929;50.810;8.342;2023-02-11T06:40:05;51.90;;;23.47;;
5805;SDS011;2929;50.810;8.342;2023-02-11T06:42:34;47.80;;;22.73;;
5805;SDS011;2929;50.810;8.342;2023-02-11T06:45:03;50.73;;;26.17;;
5805;SDS011;2929;50.810;8.342;2023-02-11T06:47:30;49.33;;;21.97;;
5805;SDS011;2929;50.810;8.342;2023-02-11T06:49:57;53.97;;;22.83;;
5805;SDS011;2929;50.810;8.342;2023-02-11T06:52:24;50.90;;;23.53;;
5805;SDS011;2929;50.810;8.342;2023-02-11T06:54:51;52.53;;;23.63;;
5805;SDS011;2929;50.810;8.342;2023-02-11T06:57:18;51.90;;;24.07;;
5805;SDS011;2929;50.810;8.342;2023-02-11T06:59:47;50.23;;;21.73;;
5805;SDS011;2929;50.810;8.342;2023-02-11T07:02:14;51.57;;;22.77;;
5805;SDS011;2929;50.810;8.342;2023-02-11T07:04:41;46.00;;;20.40;;
5805;SDS011;2929;50.810;8.342;2023-02-11T07:07:08;49.20;;;22.60;;
5805;SDS011;2929;50.810;8.342;2023-02-11T07:09:36;50.00;;;22.00;;
5805;SDS011;2929;50.810;8.342;2023-02-11T07:12:03;52.27;;;22.80;;
5805;SDS011;2929;50.810;8.342;2023-02-11T07:14:31;55.73;;;23.87;;
5805;SDS011;2929;50.810;8.342;2023-02-11T07:16:59;50.73;;;22.87;;
5805;SDS011;2929;50.810;8.342;2023-02-11T07:19:28;52.50;;;24.00;;
5805;SDS011;2929;50.810;8.342;2023-02-11T07:21:55;65.37;;;24.83;;
5805;SDS011;2929;50.810;8.342;2023-02-11T07:24:22;71.23;;;26.90;;
5805;SDS011;2929;50.810;8.342;2023-02-11T07:26:49;52.73;;;23.50;;
5805;SDS011;2929;50.810;8.342;2023-02-11T07:29:16;50.93;;;24.07;;
5805;SDS011;2929;50.810;8.342;2023-02-11T07:31:43;47.23;;;23.40;;
5805;SDS011;2929;50.810;8.342;2023-02-11T07:34:11;45.50;;;21.80;;
5805;SDS011;2929;50.810;8.342;2023-02-11T07:36:38;43.53;;;22.23;;
5805;SDS011;2929;50.810;8.342;2023-02-11T07:39:07;46.40;;;22.43;;
5805;SDS011;2929;50.810;8.342;2023-02-11T07:41:34;53.17;;;23.33;;
5805;SDS011;2929;50.810;8.342;2023-02-11T07:44:01;45.50;;;22.30;;
5805;SDS011;2929;50.810;8.342;2023-02-11T07:46:29;51.43;;;23.83;;
5805;SDS011;2929;50.810;8.342;2023-02-11T07:48:58;45.10;;;21.07;;
5805;SDS011;2929;50.810;8.342;2023-02-11T07:51:27;50.93;;;21.97;;
5805;SDS011;2929;50.810;8.342;2023-02-11T07:53:56;40.43;;;21.03;;
5805;SDS011;2929;50.810;8.342;2023-02-11T07:56:24;48.30;;;22.00;;
5805;SDS011;2929;50.810;8.342;2023-02-11T07:58:53;39.33;;;19.13;;
5805;SDS011;2929;50.810;8.342;2023-02-11T08:01:21;40.13;;;18.80;;
5805;SDS011;2929;50.810;8.342;2023-02-11T08:03:52;35.83;;;17.50;;
5805;SDS011;2929;50.810;8.342;2023-02-11T08:06:21;34.30;;;19.10;;
5805;SDS011;2929;50.810;8.342;2023-02-11T08:08:53;36.40;;;18.97;;
5805;SDS011;2929;50.810;8.342;2023-02-11T08:11:20;52.27;;;19.87;;
5805;SDS011;2929;50.810;8.342;2023-02-11T08:13:50;34.60;;;19.00;;
5805;SDS011;2929;50.810;8.342;2023-02-11T08:16:18;38.73;;;18.70;;
5805;SDS011;2929;50.810;8.342;2023-02-11T08:18:46;43.33;;;19.13;;
5805;SDS011;2929;50.810;8.342;2023-02-11T08:21:13;34.63;;;18.80;;
5805;SDS011;2929;50.810;8.342;2023-02-11T08:23:41;35.83;;;17.67;;
5805;SDS011;2929;50.810;8.342;2023-02-11T08:26:11;34.57;;;18.77;;
5805;SDS011;2929;50.810;8.342;2023-02-11T08:28:41;30.30;;;16.00;;
5805;SDS011;2929;50.810;8.342;2023-02-11T08:31:10;35.03;;;18.53;;
5805;SDS011;2929;50.810;8.342;2023-02-11T08:33:39;32.57;;;17.50;;
5805;SDS011;2929;50.810;8.342;2023-02-11T08:36:09;37.97;;;20.37;;
5805;SDS011;2929;50.810;8.342;2023-02-11T08:38:38;40.03;;;20.17;;
5805;SDS011;2929;50.810;8.342;2023-02-11T08:41:05;45.10;;;20.57;;
5805;SDS011;2929;50.810;8.342;2023-02-11T08:43:34;43.57;;;20.60;;
5805;SDS011;2929;50.810;8.342;2023-02-11T08:46:06;34.97;;;17.60;;
5805;SDS011;2929;50.810;8.342;2023-02-11T08:48:34;35.10;;;16.20;;
5805;SDS011;2929;50.810;8.342;2023-02-11T08:51:04;37.00;;;16.60;;
5805;SDS011;2929;50.810;8.342;2023-02-11T08:53:32;37.90;;;16.70;;
5805;SDS011;2929;50.810;8.342;2023-02-11T08:55:59;31.17;;;17.33;;
5805;SDS011;2929;50.810;8.342;2023-02-11T08:58:26;35.67;;;20.00;;
5805;SDS011;2929;50.810;8.342;2023-02-11T09:00:54;35.17;;;18.37;;
5805;SDS011;2929;50.810;8.342;2023-02-11T09:03:22;32.53;;;17.43;;
5805;SDS011;2929;50.810;8.342;2023-02-11T09:05:49;36.37;;;18.87;;
5805;SDS011;2929;50.810;8.342;2023-02-11T09:08:17;27.07;;;15.50;;
5805;SDS011;2929;50.810;8.342;2023-02-11T09:10:45;21.40;;;12.80;;
5805;SDS011;2929;50.810;8.342;2023-02-11T09:13:12;25.60;;;13.70;;
5805;SDS011;2929;50.810;8.342;2023-02-11T09:15:39;27.37;;;14.13;;
5805;SDS011;2929;50.810;8.342;2023-02-11T09:18:07;20.50;;;13.00;;
5805;SDS011;2929;50.810;8.342;2023-02-11T09:20:34;26.00;;;14.00;;
5805;SDS011;2929;50.810;8.342;2023-02-11T09:23:01;30.27;;;17.57;;
5805;SDS011;2929;50.810;8.342;2023-02-11T09:25:28;31.33;;;17.00;;
5805;SDS011;2929;50.810;8.342;2023-02-11T09:27:55;25.37;;;14.37;;
5805;SDS011;2929;50.810;8.342;2023-02-11T09:30:22;21.27;;;11.80;;
5805;SDS011;2929;50.810;8.342;2023-02-11T09:32:49;21.20;;;12.13;;
5805;SDS011;2929;50.810;8.342;2023-02-11T09:35:18;22.47;;;12.73;;
5805;SDS011;2929;50.810;8.342;2023-02-11T09:37:45;21.40;;;11.20;;
5805;SDS011;2929;50.810;8.342;2023-02-11T09:40:12;16.60;;;9.53;;
5805;SDS011;2929;50.810;8.342;2023-02-11T09:42:42;18.47;;;11.97;;
5805;SDS011;2929;50.810;8.342;2023-02-11T09:45:13;16.80;;;10.60;;
5805;SDS011;2929;50.810;8.342;2023-02-11T09:47:48;17.23;;;10.07;;
5805;SDS011;2929;50.810;8.342;2023-02-11T09:50:20;14.50;;;9.33;;
5805;SDS011;2929;50.810;8.342;2023-02-11T09:52:51;14.93;;;9.17;;
5805;SDS011;2929;50.810;8.342;2023-02-11T09:55:24;20.17;;;11.23;;
5805;SDS011;2929;50.810;8.342;2023-02-11T09:57:55;16.63;;;10.30;;
5805;SDS011;2929;50.810;8.342;2023-02-11T10:00:24;17.97;;;10.83;;
5805;SDS011;2929;50.810;8.342;2023-02-11T10:03:02;20.43;;;10.63;;
5805;SDS011;2929;50.810;8.342;2023-02-11T10:05:58;20.33;;;11.77;;
5805;SDS011;2929;50.810;8.342;2023-02-11T10:08:36;21.73;;;11.07;;
5805;SDS011;2929;50.810;8.342;2023-02-11T10:11:14;20.57;;;12.20;;
5805;SDS011;2929;50.810;8.342;2023-02-11T10:13:48;20.50;;;11.70;;
5805;SDS011;2929;50.810;8.342;2023-02-11T10:16:26;28.30;;;14.53;;
5805;SDS011;2929;50.810;8.342;2023-02-11T10:19:15;28.50;;;15.60;;
5805;SDS011;2929;50.810;8.342;2023-02-11T10:21:57;25.17;;;14.33;;
5805;SDS011;2929;50.810;8.342;2023-02-11T10:24:30;30.07;;;15.23;;
5805;SDS011;2929;50.810;8.342;2023-02-11T10:26:57;25.57;;;13.87;;
5805;SDS011;2929;50.810;8.342;2023-02-11T10:29:28;27.40;;;14.40;;
5805;SDS011;2929;50.810;8.342;2023-02-11T10:32:00;25.80;;;13.93;;
5805;SDS011;2929;50.810;8.342;2023-02-11T10:34:33;26.17;;;14.80;;
5805;SDS011;2929;50.810;8.342;2023-02-11T10:37:08;26.87;;;15.30;;
5805;SDS011;2929;50.810;8.342;2023-02-11T10:39:39;31.13;;;13.07;;
5805;SDS011;2929;50.810;8.342;2023-02-11T10:42:06;27.43;;;13.00;;
5805;SDS011;2929;50.810;8.342;2023-02-11T10:44:37;25.73;;;13.80;;
5805;SDS011;2929;50.810;8.342;2023-02-11T10:47:10;27.97;;;14.53;;
5805;SDS011;2929;50.810;8.342;2023-02-11T10:49:43;30.03;;;14.50;;
5805;SDS011;2929;50.810;8.342;2023-02-11T10:52:13;25.40;;;13.80;;
5805;SDS011;2929;50.810;8.342;2023-02-11T10:54:57;25.53;;;13.13;;
5805;SDS011;2929;50.810;8.342;2023-02-11T10:57:27;22.87;;;11.87;;
5805;SDS011;2929;50.810;8.342;2023-02-11T10:59:59;25.60;;;13.20;;
5805;SDS011;2929;50.810;8.342;2023-02-11T11:02:31;24.93;;;13.33;;
5805;SDS011;2929;50.810;8.342;2023-02-11T11:05:03;23.77;;;12.97;;
5805;SDS011;2929;50.810;8.342;2023-02-11T11:07:41;28.83;;;14.60;;
5805;SDS011;2929;50.810;8.342;2023-02-11T11:12:53;39.10;;;16.90;;
5805;SDS011;2929;50.810;8.342;2023-02-11T11:15:20;32.13;;;15.30;;
5805;SDS011;2929;50.810;8.342;2023-02-11T11:17:49;42.90;;;17.67;;
5805;SDS011;2929;50.810;8.342;2023-02-11T11:20:18;40.97;;;19.63;;
5805;SDS011;2929;50.810;8.342;2023-02-11T11:22:50;38.80;;;18.77;;
5805;SDS011;2929;50.810;8.342;2023-02-11T11:25:32;37.90;;;20.70;;
5805;SDS011;2929;50.810;8.342;2023-02-11T11:28:00;42.10;;;20.93;;
5805;SDS011;2929;50.810;8.342;2023-02-11T11:30:30;43.17;;;20.73;;
5805;SDS011;2929;50.810;8.342;2023-02-11T11:33:04;38.00;;;17.60;;
5805;SDS011;2929;50.810;8.342;2023-02-11T11:35:44;41.80;;;18.77;;
5805;SDS011;2929;50.810;8.342;2023-02-11T11:38:24;41.20;;;18.90;;
5805;SDS011;2929;50.810;8.342;2023-02-11T11:43:52;39.93;;;18.80;;
5805;SDS011;2929;50.810;8.342;2023-02-11T11:46:25;42.00;;;19.37;;
5805;SDS011;2929;50.810;8.342;2023-02-11T11:48:55;46.30;;;19.90;;
5805;SDS011;2929;50.810;8.342;2023-02-11T11:51:29;45.83;;;20.03;;
5805;SDS011;2929;50.810;8.342;2023-02-11T11:54:01;39.53;;;18.70;;
5805;SDS011;2929;50.810;8.342;2023-02-11T11:56:32;45.83;;;19.60;;
5805;SDS011;2929;50.810;8.342;2023-02-11T11:59:04;37.67;;;17.60;;
5805;SDS011;2929;50.810;8.342;2023-02-11T12:01:38;41.50;;;17.80;;
5805;SDS011;2929;50.810;8.342;2023-02-11T12:04:18;37.60;;;16.53;;
5805;SDS011;2929;50.810;8.342;2023-02-11T12:07:07;41.27;;;18.40;;
5805;SDS011;2929;50.810;8.342;2023-02-11T12:09:48;37.23;;;18.13;;
5805;SDS011;2929;50.810;8.342;2023-02-11T12:12:26;94.97;;;45.30;;
5805;SDS011;2929;50.810;8.342;2023-02-11T12:15:07;92.20;;;49.27;;
5805;SDS011;2929;50.810;8.342;2023-02-11T12:17:56;70.47;;;36.10;;
5805;SDS011;2929;50.810;8.342;2023-02-11T12:20:36;51.30;;;20.67;;
5805;SDS011;2929;50.810;8.342;2023-02-11T12:23:20;37.70;;;17.80;;
5805;SDS011;2929;50.810;8.342;2023-02-11T12:26:05;39.73;;;16.63;;
5805;SDS011;2929;50.810;8.342;2023-02-11T12:28:42;40.47;;;18.37;;
5805;SDS011;2929;50.810;8.342;2023-02-11T12:31:24;36.00;;;17.00;;
5805;SDS011;2929;50.810;8.342;2023-02-11T12:36:59;39.07;;;17.77;;
5805;SDS011;2929;50.810;8.342;2023-02-11T12:39:39;42.93;;;18.13;;
5805;SDS011;2929;50.810;8.342;2023-02-11T12:42:18;42.10;;;17.90;;
5805;SDS011;2929;50.810;8.342;2023-02-11T12:45:32;43.53;;;17.73;;
5805;SDS011;2929;50.810;8.342;2023-02-11T12:48:11;43.83;;;16.77;;
5805;SDS011;2929;50.810;8.342;2023-02-11T12:51:02;44.10;;;19.20;;
5805;SDS011;2929;50.810;8.342;2023-02-11T12:56:31;42.90;;;18.33;;
5805;SDS011;2929;50.810;8.342;2023-02-11T12:59:16;40.27;;;17.70;;
5805;SDS011;2929;50.810;8.342;2023-02-11T13:01:54;41.07;;;19.50;;
5805;SDS011;2929;50.810;8.342;2023-02-11T13:04:24;38.07;;;16.33;;
5805;SDS011;2929;50.810;8.342;2023-02-11T13:06:56;39.23;;;16.63;;
5805;SDS011;2929;50.810;8.342;2023-02-11T13:09:28;39.57;;;17.03;;
5805;SDS011;2929;50.810;8.342;2023-02-11T13:12:01;40.93;;;16.63;;
5805;SDS011;2929;50.810;8.342;2023-02-11T13:14:53;37.57;;;16.17;;
5805;SDS011;2929;50.810;8.342;2023-02-11T13:17:26;42.70;;;17.57;;
5805;SDS011;2929;50.810;8.342;2023-02-11T13:20:02;40.10;;;18.13;;
5805;SDS011;2929;50.810;8.342;2023-02-11T13:22:42;40.13;;;17.00;;
5805;SDS011;2929;50.810;8.342;2023-02-11T13:25:16;35.30;;;16.17;;
5805;SDS011;2929;50.810;8.342;2023-02-11T13:27:55;38.17;;;16.70;;
5805;SDS011;2929;50.810;8.342;2023-02-11T13:30:27;43.57;;;18.30;;
5805;SDS011;2929;50.810;8.342;2023-02-11T13:33:03;41.17;;;17.03;;
5805;SDS011;2929;50.810;8.342;2023-02-11T13:35:43;36.20;;;14.57;;
5805;SDS011;2929;50.810;8.342;2023-02-11T13:38:17;37.13;;;14.40;;
5805;SDS011;2929;50.810;8.342;2023-02-11T13:40:56;43.47;;;17.17;;
5805;SDS011;2929;50.810;8.342;2023-02-11T13:43:28;43.97;;;19.50;;
5805;SDS011;2929;50.810;8.342;2023-02-11T13:45:59;50.27;;;20.00;;
5805;SDS011;2929;50.810;8.342;2023-02-11T13:48:28;47.70;;;19.13;;
5805;SDS011;2929;50.810;8.342;2023-02-11T13:50:57;46.07;;;19.50;;
5805;SDS011;2929;50.810;8.342;2023-02-11T13:53:26;49.97;;;18.10;;
5805;SDS011;2929;50.810;8.342;2023-02-11T13:56:03;47.83;;;21.17;;
5805;SDS011;2929;50.810;8.342;2023-02-11T13:58:33;62.87;;;27.67;;
5805;SDS011;2929;50.810;8.342;2023-02-11T14:01:05;45.10;;;19.30;;
5805;SDS011;2929;50.810;8.342;2023-02-11T14:03:33;47.90;;;18.47;;
5805;SDS011;2929;50.810;8.342;2023-02-11T14:06:21;54.77;;;20.73;;
5805;SDS011;2929;50.810;8.342;2023-02-11T14:09:31;49.60;;;17.13;;
5805;SDS011;2929;50.810;8.342;2023-02-11T14:14:57;55.40;;;20.57;;
5805;SDS011;2929;50.810;8.342;2023-02-11T14:17:39;48.77;;;21.20;;
5805;SDS011;2929;50.810;8.342;2023-02-11T14:22:59;54.30;;;19.43;;
5805;SDS011;2929;50.810;8.342;2023-02-11T14:25:30;49.53;;;20.33;;
5805;SDS011;2929;50.810;8.342;2023-02-11T14:27:59;48.10;;;20.60;;
5805;SDS011;2929;50.810;8.342;2023-02-11T14:30:41;52.20;;;20.67;;
5805;SDS011;2929;50.810;8.342;2023-02-11T14:33:33;50.70;;;20.27;;
5805;SDS011;2929;50.810;8.342;2023-02-11T14:39:18;61.90;;;20.90;;
5805;SDS011;2929;50.810;8.342;2023-02-11T14:41:54;53.30;;;21.47;;
5805;SDS011;2929;50.810;8.342;2023-02-11T14:44:22;57.07;;;19.57;;
5805;SDS011;2929;50.810;8.342;2023-02-11T14:46:52;58.60;;;21.90;;
5805;SDS011;2929;50.810;8.342;2023-02-11T14:49:23;54.23;;;20.93;;
5805;SDS011;2929;50.810;8.342;2023-02-11T14:51:52;61.30;;;21.83;;
5805;SDS011;2929;50.810;8.342;2023-02-11T14:54:23;59.33;;;21.43;;
5805;SDS011;2929;50.810;8.342;2023-02-11T14:57:07;59.23;;;21.23;;
5805;SDS011;2929;50.810;8.342;2023-02-11T14:59:37;52.80;;;22.13;;
5805;SDS011;2929;50.810;8.342;2023-02-11T15:02:15;55.87;;;20.90;;
5805;SDS011;2929;50.810;8.342;2023-02-11T15:04:47;60.23;;;21.00;;
5805;SDS011;2929;50.810;8.342;2023-02-11T15:07:14;57.90;;;22.50;;
5805;SDS011;2929;50.810;8.342;2023-02-11T15:09:43;53.70;;;21.73;;
5805;SDS011;2929;50.810;8.342;2023-02-11T15:12:16;60.43;;;22.90;;
5805;SDS011;2929;50.810;8.342;2023-02-11T15:14:48;50.07;;;20.00;;
5805;SDS011;2929;50.810;8.342;2023-02-11T15:17:18;57.87;;;22.90;;
5805;SDS011;2929;50.810;8.342;2023-02-11T15:19:48;69.03;;;23.30;;
5805;SDS011;2929;50.810;8.342;2023-02-11T15:22:19;54.03;;;21.37;;
5805;SDS011;2929;50.810;8.342;2023-02-11T15:24:56;65.13;;;22.57;;
5805;SDS011;2929;50.810;8.342;2023-02-11T15:27:26;69.53;;;23.67;;
5805;SDS011;2929;50.810;8.342;2023-02-11T15:29:54;68.17;;;23.83;;
5805;SDS011;2929;50.810;8.342;2023-02-11T15:32:22;60.20;;;23.20;;
5805;SDS011;2929;50.810;8.342;2023-02-11T15:34:50;60.43;;;23.20;;
5805;SDS011;2929;50.810;8.342;2023-02-11T15:37:21;60.17;;;22.47;;